createdAt,value
2023-05-22T00:01:05.026Z,16.53
2023-05-22T00:03:33.634Z,16.52
2023-05-22T00:06:02.064Z,16.50
2023-05-22T00:08:30.184Z,16.45
2023-05-22T00:10:58.315Z,16.40
2023-05-22T00:13:26.424Z,16.32
2023-05-22T00:15:54.647Z,16.26
2023-05-22T00:18:22.966Z,16.19
2023-05-22T00:20:51.284Z,16.16
2023-05-22T00:23:19.606Z,16.17
2023-05-22T00:25:47.827Z,16.19
2023-05-22T00:28:15.946Z,16.18
2023-05-22T00:30:44.167Z,16.19
2023-05-22T00:33:12.686Z,16.18
2023-05-22T00:35:40.707Z,16.16
2023-05-22T00:38:08.930Z,16.13
2023-05-22T00:40:37.318Z,16.08
2023-05-22T00:43:08.894Z,16.04
2023-05-22T00:45:37.716Z,16.04
2023-05-22T00:48:06.431Z,16.07
2023-05-22T00:50:34.750Z,16.10
2023-05-22T00:53:03.168Z,16.13
2023-05-22T00:55:31.500Z,16.15
2023-05-22T00:58:01.283Z,16.16
2023-05-22T01:00:30.457Z,16.16
2023-05-22T01:02:59.623Z,16.16
2023-05-22T01:05:27.985Z,16.15
2023-05-22T01:07:57.407Z,16.15
2023-05-22T01:10:26.746Z,16.15
2023-05-22T01:13:06.301Z,16.17
2023-05-22T01:15:41.175Z,16.20
2023-05-22T01:18:12.795Z,16.23
2023-05-22T01:20:49.047Z,16.22
2023-05-22T01:23:29.379Z,16.20
2023-05-22T01:26:22.739Z,16.19
2023-05-22T01:29:23.127Z,16.16
2023-05-22T01:31:53.421Z,16.10
2023-05-22T01:34:27.125Z,16.08
2023-05-22T01:36:56.926Z,16.09
2023-05-22T01:39:29.047Z,16.08
2023-05-22T01:41:57.995Z,16.06
2023-05-22T01:44:26.220Z,16.05
2023-05-22T01:47:00.733Z,16.01
2023-05-22T01:49:29.255Z,15.96
2023-05-22T01:52:03.894Z,15.91
2023-05-22T01:54:42.553Z,15.86
2023-05-22T01:57:18.302Z,15.83
2023-05-22T02:00:12.317Z,15.84
2023-05-22T02:02:49.966Z,15.84
2023-05-22T02:05:22.029Z,15.84
2023-05-22T02:07:51.132Z,15.81
2023-05-22T02:10:21.592Z,15.76
2023-05-22T02:12:49.780Z,15.72
2023-05-22T02:15:18.693Z,15.67
2023-05-22T02:17:49.839Z,15.64
2023-05-22T02:20:18.155Z,15.62
2023-05-22T02:22:47.775Z,15.63
2023-05-22T02:25:17.554Z,15.63
2023-05-22T02:27:48.117Z,15.61
2023-05-22T02:30:16.551Z,15.58
2023-05-22T02:32:46.312Z,15.57
2023-05-22T02:35:14.705Z,15.53
2023-05-22T02:37:42.925Z,15.49
2023-05-22T02:40:11.932Z,15.43
2023-05-22T02:42:40.464Z,15.43
2023-05-22T02:45:09.491Z,15.42
2023-05-22T02:47:37.727Z,15.45
2023-05-22T02:50:07.132Z,15.46
2023-05-22T02:52:37.234Z,15.46
2023-05-22T02:55:06.089Z,15.44
2023-05-22T02:57:34.191Z,15.43
2023-05-22T03:00:03.615Z,15.43
2023-05-22T03:02:36.747Z,15.46
2023-05-22T03:05:06.292Z,15.53
2023-05-22T03:07:35.160Z,15.57
2023-05-22T03:10:03.626Z,15.63
2023-05-22T03:12:31.759Z,15.66
2023-05-22T03:15:00.276Z,15.67
2023-05-22T03:17:28.610Z,15.69
2023-05-22T03:19:56.803Z,15.69
2023-05-22T03:22:24.925Z,15.73
2023-05-22T03:24:53.751Z,15.81
2023-05-22T03:27:21.870Z,15.89
2023-05-22T03:29:50.195Z,15.96
2023-05-22T03:32:19.124Z,16.02
2023-05-22T03:34:47.738Z,16.05
2023-05-22T03:37:16.084Z,16.08
2023-05-22T03:39:44.281Z,16.13
2023-05-22T03:42:19.525Z,16.17
2023-05-22T03:44:47.841Z,16.21
2023-05-22T03:47:16.677Z,16.26
2023-05-22T03:49:44.886Z,16.32
2023-05-22T03:52:13.108Z,16.40
2023-05-22T03:54:41.524Z,16.49
2023-05-22T03:57:09.742Z,16.56
2023-05-22T03:59:38.075Z,16.64
2023-05-22T04:02:06.517Z,16.73
2023-05-22T04:04:38.784Z,16.82
2023-05-22T04:07:12.960Z,16.91
2023-05-22T04:09:41.694Z,17.00
2023-05-22T04:12:10.404Z,17.10
2023-05-22T04:14:38.526Z,17.20
2023-05-22T04:17:06.744Z,17.32
2023-05-22T04:19:35.113Z,17.44
2023-05-22T04:22:03.286Z,17.53
2023-05-22T04:24:31.606Z,17.61
2023-05-22T04:27:02.534Z,17.69
2023-05-22T04:29:30.654Z,17.76
2023-05-22T04:32:00.518Z,17.83
2023-05-22T04:34:30.429Z,17.90
2023-05-22T04:37:00.330Z,17.97
2023-05-22T04:39:28.465Z,18.03
2023-05-22T04:41:58.881Z,18.09
2023-05-22T04:44:27.505Z,18.16
2023-05-22T04:46:57.611Z,18.28
2023-05-22T04:49:26.552Z,18.38
2023-05-22T04:51:57.499Z,18.47
2023-05-22T04:54:25.901Z,18.55
2023-05-22T04:56:54.162Z,18.60
2023-05-22T04:59:23.652Z,18.67
2023-05-22T05:01:52.264Z,18.75
2023-05-22T05:04:20.388Z,18.81
2023-05-22T05:06:49.112Z,18.89
2023-05-22T05:09:17.330Z,18.93
2023-05-22T05:11:46.353Z,18.95
2023-05-22T05:14:14.585Z,19.00
2023-05-22T05:16:43.025Z,19.03
2023-05-22T05:19:11.370Z,19.07
2023-05-22T05:21:39.942Z,19.12
2023-05-22T05:24:08.159Z,19.18
2023-05-22T05:26:36.384Z,19.22
2023-05-22T05:29:04.798Z,19.23
2023-05-22T05:31:39.912Z,19.23
2023-05-22T05:34:13.780Z,19.25
2023-05-22T05:37:17.431Z,19.33
2023-05-22T05:39:46.657Z,19.39
2023-05-22T05:42:15.596Z,19.49
2023-05-22T05:44:44.099Z,19.56
2023-05-22T05:47:13.911Z,19.61
2023-05-22T05:49:42.750Z,19.69
2023-05-22T05:52:10.778Z,19.73
2023-05-22T05:54:38.889Z,19.82
2023-05-22T05:57:15.251Z,19.91
2023-05-22T05:59:44.060Z,20.02
2023-05-22T06:02:31.541Z,20.11
2023-05-22T06:05:00.374Z,20.21
2023-05-22T06:07:32.401Z,20.30
2023-05-22T06:10:01.524Z,20.37
2023-05-22T06:12:38.981Z,20.46
2023-05-22T06:15:07.840Z,20.54
2023-05-22T06:17:37.746Z,20.63
2023-05-22T06:20:07.455Z,20.73
2023-05-22T06:22:35.975Z,20.82
2023-05-22T06:25:05.195Z,20.94
2023-05-22T06:27:34.324Z,21.04
2023-05-22T06:30:04.565Z,21.14
2023-05-22T06:32:36.759Z,21.28
2023-05-22T06:35:05.522Z,21.39
2023-05-22T06:37:35.943Z,21.50
2023-05-22T06:40:06.253Z,21.60
2023-05-22T06:43:03.289Z,21.63
2023-05-22T06:45:54.816Z,21.65
2023-05-22T06:48:51.408Z,21.65
2023-05-22T06:51:25.962Z,21.70
2023-05-22T06:53:59.494Z,21.77
2023-05-22T06:56:31.120Z,21.84
2023-05-22T06:59:05.444Z,21.92
2023-05-22T07:01:53.166Z,22.02
2023-05-22T07:04:39.937Z,22.09
2023-05-22T07:07:12.070Z,22.17
2023-05-22T07:09:40.490Z,22.29
2023-05-22T07:12:09.618Z,22.39
2023-05-22T07:14:37.934Z,22.52
2023-05-22T07:17:06.269Z,22.65
2023-05-22T07:19:38.721Z,22.77
2023-05-22T07:22:06.912Z,22.89
2023-05-22T07:24:35.833Z,23.00
2023-05-22T07:27:04.774Z,23.09
2023-05-22T07:29:34.386Z,23.15
2023-05-22T07:32:02.915Z,23.25
2023-05-22T07:34:33.337Z,23.35
2023-05-22T07:37:09.118Z,23.42
2023-05-22T07:39:37.312Z,23.49
2023-05-22T07:42:06.616Z,23.57
2023-05-22T07:44:38.101Z,23.63
2023-05-22T07:47:07.077Z,23.68
2023-05-22T07:49:35.895Z,23.75
2023-05-22T07:52:04.324Z,23.84
2023-05-22T07:54:32.494Z,23.89
2023-05-22T07:57:03.778Z,23.95
2023-05-22T07:59:36.001Z,23.92
2023-05-22T08:02:04.616Z,23.96
2023-05-22T08:04:32.982Z,23.95
2023-05-22T08:07:01.872Z,23.97
2023-05-22T08:09:29.988Z,24.06
2023-05-22T08:11:58.102Z,24.05
2023-05-22T08:14:26.223Z,23.93
2023-05-22T08:16:54.296Z,23.88
2023-05-22T08:19:22.667Z,23.80
2023-05-22T08:21:53.086Z,23.75
2023-05-22T08:24:22.622Z,23.64
2023-05-22T08:26:50.842Z,23.52
2023-05-22T08:29:18.961Z,23.55
2023-05-22T08:31:47.056Z,23.50
2023-05-22T08:34:15.400Z,23.56
2023-05-22T08:36:43.531Z,23.59
2023-05-22T08:39:12.444Z,23.65
2023-05-22T08:41:40.758Z,23.65
2023-05-22T08:44:11.104Z,23.58
2023-05-22T08:46:41.962Z,23.45
2023-05-22T08:49:11.545Z,23.24
2023-05-22T08:51:42.551Z,23.08
2023-05-22T08:54:10.800Z,23.02
2023-05-22T08:56:53.051Z,23.10
2023-05-22T08:59:25.095Z,23.17
2023-05-22T09:01:54.121Z,23.26
2023-05-22T09:04:24.266Z,23.38
2023-05-22T09:06:53.375Z,23.47
2023-05-22T09:09:21.608Z,23.53
2023-05-22T09:11:50.016Z,23.55
2023-05-22T09:14:18.940Z,23.61
2023-05-22T09:16:48.494Z,23.68
2023-05-22T09:19:16.963Z,23.67
2023-05-22T09:21:45.214Z,23.74
2023-05-22T09:24:13.533Z,23.90
2023-05-22T09:26:41.851Z,24.02
2023-05-22T09:29:10.291Z,24.14
2023-05-22T09:31:43.417Z,24.18
2023-05-22T09:34:16.013Z,24.32
2023-05-22T09:36:44.390Z,24.48
2023-05-22T09:39:12.592Z,24.65
2023-05-22T09:41:40.713Z,24.69
2023-05-22T09:44:16.629Z,24.65
2023-05-22T09:46:47.472Z,24.50
2023-05-22T09:49:17.462Z,24.52
2023-05-22T09:51:49.574Z,24.53
2023-05-22T09:54:20.099Z,24.67
2023-05-22T09:56:52.730Z,24.56
2023-05-22T09:59:23.467Z,24.56
2023-05-22T10:01:52.055Z,24.61
2023-05-22T10:04:23.277Z,24.63
2023-05-22T10:06:54.370Z,24.63
2023-05-22T10:09:26.364Z,24.82
2023-05-22T10:11:57.394Z,24.79
2023-05-22T10:14:26.450Z,24.79
2023-05-22T10:17:02.267Z,24.81
2023-05-22T10:19:33.027Z,24.83
2023-05-22T10:22:02.123Z,24.96
2023-05-22T10:24:31.622Z,24.92
2023-05-22T10:27:00.054Z,24.97
2023-05-22T10:29:35.769Z,25.24
2023-05-22T10:32:03.920Z,25.48
2023-05-22T10:34:56.335Z,25.55
2023-05-22T10:37:59.969Z,25.70
2023-05-22T10:40:31.821Z,25.66
2023-05-22T10:43:01.480Z,25.70
2023-05-22T10:45:30.917Z,25.80
2023-05-22T10:48:06.719Z,25.86
2023-05-22T10:50:36.590Z,25.85
2023-05-22T10:53:22.623Z,25.91
2023-05-22T10:55:58.459Z,26.00
2023-05-22T10:58:31.529Z,26.07
2023-05-22T11:01:26.678Z,25.99
2023-05-22T11:04:09.314Z,25.89
2023-05-22T11:06:42.639Z,25.86
2023-05-22T11:09:22.084Z,25.87
2023-05-22T11:12:26.044Z,25.94
2023-05-22T11:15:08.791Z,25.85
2023-05-22T11:17:40.139Z,25.70
2023-05-22T11:20:22.672Z,25.63
2023-05-22T11:22:58.556Z,25.50
2023-05-22T11:25:28.376Z,25.51
2023-05-22T11:27:56.893Z,25.59
2023-05-22T11:30:30.613Z,25.59
2023-05-22T11:33:00.130Z,25.49
2023-05-22T11:35:29.301Z,25.11
2023-05-22T11:37:57.606Z,24.88
2023-05-22T11:40:29.769Z,24.75
2023-05-22T11:42:58.057Z,24.42
2023-05-22T11:45:27.191Z,24.46
2023-05-22T11:47:56.132Z,24.59
2023-05-22T11:50:40.154Z,24.74
2023-05-22T11:53:10.121Z,24.63
2023-05-22T11:55:38.324Z,24.59
2023-05-22T11:58:06.453Z,24.47
2023-05-22T12:00:34.837Z,24.45
2023-05-22T12:03:03.187Z,24.38
2023-05-22T12:05:34.413Z,24.42
2023-05-22T12:08:02.651Z,24.47
2023-05-22T12:10:31.622Z,24.51
2023-05-22T12:12:59.774Z,24.55
2023-05-22T12:15:27.791Z,24.50
2023-05-22T12:17:56.763Z,24.44
2023-05-22T12:20:30.827Z,24.42
2023-05-22T12:23:00.053Z,24.37
2023-05-22T12:25:37.319Z,24.31
2023-05-22T12:28:08.265Z,24.25
2023-05-22T12:30:42.847Z,24.04
2023-05-22T12:33:17.389Z,23.69
2023-05-22T12:35:45.868Z,23.38
2023-05-22T12:38:13.988Z,23.15
2023-05-22T12:40:42.107Z,22.82
2023-05-22T12:43:10.230Z,22.55
2023-05-22T12:45:41.160Z,22.34
2023-05-22T12:48:10.065Z,22.24
2023-05-22T12:50:38.469Z,22.18
2023-05-22T12:53:06.921Z,22.08
2023-05-22T12:55:36.254Z,21.91
2023-05-22T12:58:04.685Z,21.79
2023-05-22T13:00:33.029Z,21.59
2023-05-22T13:03:01.874Z,21.39
2023-05-22T13:05:30.452Z,21.33
2023-05-22T13:07:58.753Z,21.29
2023-05-22T13:10:26.773Z,21.13
2023-05-22T13:12:54.994Z,20.96
2023-05-22T13:15:23.008Z,20.90
2023-05-22T13:17:51.222Z,20.84
2023-05-22T13:20:19.551Z,20.79
2023-05-22T13:22:47.974Z,20.71
2023-05-22T13:25:19.204Z,20.74
2023-05-22T13:27:47.531Z,20.74
2023-05-22T13:30:16.233Z,20.76
2023-05-22T13:32:44.407Z,20.75
2023-05-22T13:35:12.520Z,20.74
2023-05-22T13:37:40.809Z,20.78
2023-05-22T13:40:09.991Z,20.81
2023-05-22T13:42:38.710Z,20.79
2023-05-22T13:45:07.746Z,20.73
2023-05-22T13:47:36.010Z,20.64
2023-05-22T13:50:05.649Z,20.57
2023-05-22T13:52:33.944Z,20.61
2023-05-22T13:55:02.369Z,20.77
2023-05-22T13:57:30.597Z,21.01
2023-05-22T13:59:59.115Z,21.24
2023-05-22T14:02:27.276Z,21.47
2023-05-22T14:04:55.451Z,21.68
2023-05-22T14:07:24.074Z,21.79
2023-05-22T14:09:52.193Z,21.77
2023-05-22T14:12:20.319Z,21.85
2023-05-22T14:14:48.443Z,21.98
2023-05-22T14:17:16.554Z,22.02
2023-05-22T14:19:44.772Z,22.05
2023-05-22T14:22:12.789Z,22.06
2023-05-22T14:24:40.908Z,22.01
2023-05-22T14:27:10.231Z,21.94
2023-05-22T14:29:38.455Z,21.85
2023-05-22T14:32:06.874Z,21.94
2023-05-22T14:34:35.013Z,21.96
2023-05-22T14:37:03.721Z,22.01
2023-05-22T14:39:31.939Z,22.03
2023-05-22T14:42:00.189Z,22.06
2023-05-22T14:44:28.276Z,22.04
2023-05-22T14:46:56.509Z,22.05
2023-05-22T14:49:24.521Z,22.15
2023-05-22T14:51:53.242Z,22.27
2023-05-22T14:54:23.779Z,22.28
2023-05-22T14:56:51.901Z,22.23
2023-05-22T14:59:20.746Z,22.13
2023-05-22T15:01:50.579Z,22.12
2023-05-22T15:04:19.127Z,22.18
2023-05-22T15:06:47.287Z,22.15
2023-05-22T15:09:15.509Z,22.13
2023-05-22T15:11:46.938Z,22.03
2023-05-22T15:14:15.763Z,21.87
2023-05-22T15:16:44.020Z,21.71
2023-05-22T15:19:12.444Z,21.58
2023-05-22T15:21:42.330Z,21.39
2023-05-22T15:24:10.750Z,21.25
2023-05-22T15:26:39.162Z,21.11
2023-05-22T15:29:07.389Z,21.01
2023-05-22T15:31:35.559Z,20.99
2023-05-22T15:34:03.723Z,21.04
2023-05-22T15:36:35.155Z,21.08
2023-05-22T15:39:03.702Z,21.10
2023-05-22T15:41:31.896Z,21.05
2023-05-22T15:44:00.415Z,21.06
2023-05-22T15:46:28.830Z,21.10
2023-05-22T15:48:57.161Z,21.12
2023-05-22T15:51:25.181Z,21.14
2023-05-22T15:53:53.412Z,21.18
2023-05-22T15:56:21.723Z,21.24
2023-05-22T15:58:49.844Z,21.28
2023-05-22T16:01:18.571Z,21.25
2023-05-22T16:03:46.848Z,21.14
2023-05-22T16:06:15.208Z,21.11
2023-05-22T16:08:43.240Z,21.09
2023-05-22T16:11:11.560Z,21.04
2023-05-22T16:13:39.970Z,20.93
2023-05-22T16:16:08.342Z,20.87
2023-05-22T16:18:36.510Z,20.84
2023-05-22T16:21:05.129Z,20.73
2023-05-22T16:23:33.248Z,20.63
2023-05-22T16:26:01.474Z,20.46
2023-05-22T16:28:29.486Z,20.30
2023-05-22T16:30:57.709Z,20.15
2023-05-22T16:33:26.039Z,20.06
2023-05-22T16:35:54.150Z,19.94
2023-05-22T16:38:22.271Z,19.83
2023-05-22T16:40:50.391Z,19.76
2023-05-22T16:43:18.511Z,19.65
2023-05-22T16:45:51.336Z,19.56
2023-05-22T16:48:19.734Z,19.49
2023-05-22T16:50:47.985Z,19.40
2023-05-22T16:53:17.466Z,19.27
2023-05-22T16:55:45.829Z,19.18
2023-05-22T16:58:14.194Z,19.09
2023-05-22T17:00:42.629Z,19.02
2023-05-22T17:03:12.261Z,18.94
2023-05-22T17:05:40.908Z,18.86
2023-05-22T17:08:09.543Z,18.79
2023-05-22T17:10:37.666Z,18.74
2023-05-22T17:13:05.884Z,18.65
2023-05-22T17:15:34.606Z,18.63
2023-05-22T17:18:02.869Z,18.61
2023-05-22T17:20:34.458Z,18.58
2023-05-22T17:23:02.681Z,18.55
2023-05-22T17:25:30.899Z,18.48
2023-05-22T17:27:59.292Z,18.44
2023-05-22T17:30:27.460Z,18.34
2023-05-22T17:32:57.145Z,18.25
2023-05-22T17:35:25.387Z,18.18
2023-05-22T17:37:53.515Z,18.13
2023-05-22T17:40:32.533Z,18.03
2023-05-22T17:43:08.512Z,17.95
2023-05-22T17:45:36.729Z,17.90
2023-05-22T17:48:05.120Z,17.90
2023-05-22T17:50:33.195Z,17.92
2023-05-22T17:53:01.298Z,17.94
2023-05-22T17:55:29.524Z,17.97
2023-05-22T17:57:57.933Z,17.97
2023-05-22T18:00:26.083Z,17.96
2023-05-22T18:02:54.497Z,17.94
2023-05-22T18:05:22.894Z,17.93
2023-05-22T18:07:51.022Z,17.89
2023-05-22T18:10:24.050Z,17.86
2023-05-22T18:12:52.169Z,17.84
2023-05-22T18:15:20.391Z,17.81
2023-05-22T18:17:48.648Z,17.78
2023-05-22T18:20:17.029Z,17.77
2023-05-22T18:22:45.051Z,17.79
2023-05-22T18:25:13.273Z,17.78
2023-05-22T18:27:41.895Z,17.77
2023-05-22T18:30:10.707Z,17.73
2023-05-22T18:32:39.279Z,17.71
2023-05-22T18:35:08.064Z,17.67
2023-05-22T18:37:36.984Z,17.62
2023-05-22T18:40:09.672Z,17.58
2023-05-22T18:42:37.868Z,17.53
2023-05-22T18:45:07.103Z,17.49
2023-05-22T18:47:35.395Z,17.49
2023-05-22T18:50:04.819Z,17.50
2023-05-22T18:52:33.040Z,17.47
2023-05-22T18:55:01.264Z,17.46
2023-05-22T18:57:29.373Z,17.43
2023-05-22T18:59:57.586Z,17.39
2023-05-22T19:02:25.735Z,17.35
2023-05-22T19:04:54.048Z,17.29
2023-05-22T19:07:22.349Z,17.21
2023-05-22T19:09:50.527Z,17.17
2023-05-22T19:12:18.691Z,17.16
2023-05-22T19:14:48.542Z,17.18
2023-05-22T19:17:16.766Z,17.23
2023-05-22T19:19:45.059Z,17.30
2023-05-22T19:22:13.199Z,17.35
2023-05-22T19:24:41.308Z,17.43
2023-05-22T19:27:09.449Z,17.49
2023-05-22T19:29:37.751Z,17.54
2023-05-22T19:32:06.385Z,17.56
2023-05-22T19:34:34.385Z,17.58
2023-05-22T19:37:02.603Z,17.57
2023-05-22T19:39:30.824Z,17.60
2023-05-22T19:41:59.053Z,17.70
2023-05-22T19:44:27.261Z,17.84
2023-05-22T19:46:56.953Z,17.99
2023-05-22T19:49:26.128Z,18.09
2023-05-22T19:51:56.098Z,18.18
2023-05-22T19:54:24.463Z,18.24
2023-05-22T19:56:52.779Z,18.24
2023-05-22T19:59:21.101Z,18.22
2023-05-22T20:01:51.321Z,18.20
2023-05-22T20:04:21.865Z,18.20
2023-05-22T20:06:49.876Z,18.21
2023-05-22T20:09:17.994Z,18.24
2023-05-22T20:11:46.241Z,18.25
2023-05-22T20:14:14.738Z,18.27
2023-05-22T20:16:42.928Z,18.28
2023-05-22T20:19:14.558Z,18.27
2023-05-22T20:21:42.711Z,18.24
2023-05-22T20:24:17.564Z,18.21
2023-05-22T20:26:45.767Z,18.20
2023-05-22T20:29:14.997Z,18.23
2023-05-22T20:31:44.087Z,18.23
2023-05-22T20:34:12.241Z,18.22
2023-05-22T20:36:42.656Z,18.23
2023-05-22T20:39:12.033Z,18.23
2023-05-22T20:41:40.313Z,18.21
2023-05-22T20:44:08.530Z,18.19
2023-05-22T20:46:36.662Z,18.17
2023-05-22T20:49:05.385Z,18.16
2023-05-22T20:51:34.108Z,18.18
2023-05-22T20:54:02.324Z,18.21
2023-05-22T20:56:30.433Z,18.23
2023-05-22T20:58:58.563Z,18.25
2023-05-22T21:01:26.748Z,18.28
2023-05-22T21:03:56.771Z,18.28
2023-05-22T21:06:25.223Z,18.27
2023-05-22T21:08:58.948Z,18.24
2023-05-22T21:11:27.794Z,18.23
2023-05-22T21:13:56.051Z,18.23
2023-05-22T21:16:24.785Z,18.28
2023-05-22T21:18:53.071Z,18.29
2023-05-22T21:21:21.669Z,18.29
2023-05-22T21:23:50.996Z,18.29
2023-05-22T21:26:22.442Z,18.29
2023-05-22T21:28:50.886Z,18.28
2023-05-22T21:31:19.113Z,18.28
2023-05-22T21:33:47.191Z,18.26
2023-05-22T21:36:15.920Z,18.24
2023-05-22T21:38:44.642Z,18.21
2023-05-22T21:41:13.857Z,18.21
2023-05-22T21:43:42.407Z,18.19
2023-05-22T21:46:10.535Z,18.20
2023-05-22T21:48:38.819Z,18.21
2023-05-22T21:51:07.038Z,18.24
2023-05-22T21:53:35.096Z,18.27
2023-05-22T21:56:03.286Z,18.26
2023-05-22T21:58:31.396Z,18.27
2023-05-22T22:00:59.519Z,18.23
2023-05-22T22:03:27.689Z,18.17
2023-05-22T22:05:56.057Z,18.10
2023-05-22T22:08:24.382Z,18.05
2023-05-22T22:10:52.806Z,17.99
2023-05-22T22:13:21.016Z,17.95
2023-05-22T22:15:49.146Z,17.95
2023-05-22T22:18:17.359Z,17.95
2023-05-22T22:20:45.773Z,17.92
2023-05-22T22:23:14.116Z,17.87
2023-05-22T22:25:42.219Z,17.84
2023-05-22T22:28:10.645Z,17.79
2023-05-22T22:30:38.767Z,17.73
2023-05-22T22:33:07.321Z,17.65
2023-05-22T22:35:35.504Z,17.59
2023-05-22T22:38:03.724Z,17.50
2023-05-22T22:40:31.849Z,17.44
2023-05-22T22:42:59.971Z,17.36
2023-05-22T22:45:28.092Z,17.27
2023-05-22T22:47:56.645Z,17.19
2023-05-22T22:50:24.830Z,17.11
2023-05-22T22:52:52.951Z,17.01
2023-05-22T22:55:21.399Z,16.90
2023-05-22T22:57:50.349Z,16.81
2023-05-22T23:00:19.530Z,16.73
2023-05-22T23:02:48.030Z,16.66
2023-05-22T23:05:20.437Z,16.60
2023-05-22T23:07:49.193Z,16.54
2023-05-22T23:10:17.321Z,16.49
2023-05-22T23:12:48.127Z,16.43
2023-05-22T23:15:16.465Z,16.42
2023-05-22T23:17:44.809Z,16.44
2023-05-22T23:20:13.609Z,16.43
2023-05-22T23:22:41.730Z,16.42
2023-05-22T23:25:10.465Z,16.40
2023-05-22T23:27:39.484Z,16.39
2023-05-22T23:30:08.297Z,16.38
2023-05-22T23:32:36.584Z,16.35
2023-05-22T23:35:05.338Z,16.33
2023-05-22T23:37:33.558Z,16.35
2023-05-22T23:40:01.792Z,16.37
2023-05-22T23:42:29.897Z,16.40
2023-05-22T23:44:58.017Z,16.40
2023-05-22T23:47:26.172Z,16.40
2023-05-22T23:49:56.367Z,16.39
2023-05-22T23:52:24.490Z,16.37
2023-05-22T23:54:52.807Z,16.35
2023-05-22T23:57:21.031Z,16.34
2023-05-22T23:59:49.245Z,16.34
